Time;durP1;ratioP1;P1;durP2;ratioP2;P2;SDS_P1;SDS_P2;PMS_P1;PMS_P2;Temp;Humidity;BMP_temperature;BMP_pressure;BME280_temperature;BME280_humidity;BME280_pressure;Samples;Min_cycle;Max_cycle;Signal;HPM_P1;HPM_P2
2021/12/20 00:01:43;;;;;;;2.43;1.70;;;7.30;1.00;;;;;;5079731;28;20607;-76
2021/12/20 00:04:08;;;;;;;2.97;2.00;;;7.30;1.00;;;;;;5086034;28;20428;-76
2021/12/20 00:06:34;;;;;;;3.37;2.17;;;7.50;1.00;;;;;;5074956;28;20429;-76
2021/12/20 00:09:00;;;;;;;2.70;1.73;;;7.30;1.00;;;;;;5073258;28;20520;-76
2021/12/20 00:11:26;;;;;;;2.70;1.70;;;7.30;1.00;;;;;;5076560;28;20565;-76
2021/12/20 00:13:51;;;;;;;4.80;1.93;;;7.30;1.00;;;;;;5094715;28;20412;-77
2021/12/20 00:16:17;;;;;;;4.53;2.10;;;7.30;1.00;;;;;;5086238;28;20660;-77
2021/12/20 00:18:43;;;;;;;2.60;1.70;;;7.20;1.00;;;;;;5074402;28;20190;-77
2021/12/20 00:21:10;;;;;;;1.60;1.50;;;7.20;1.00;;;;;;5074110;28;20190;-77
2021/12/20 00:23:36;;;;;;;2.80;1.73;;;;;;;;;;5073976;28;20505;-77
2021/12/20 00:26:02;;;;;;;1.80;1.70;;;7.20;1.00;;;;;;5074230;28;20421;-77
2021/12/20 00:28:30;;;;;;;3.03;1.80;;;7.10;1.00;;;;;;5074150;28;20953;-77
2021/12/20 00:30:56;;;;;;;2.40;1.90;;;7.10;1.00;;;;;;5074399;28;20289;-76
2021/12/20 00:33:22;;;;;;;6.33;1.70;;;7.20;1.00;;;;;;5077296;28;20503;-76
2021/12/20 00:35:49;;;;;;;1.47;1.33;;;7.20;1.00;;;;;;5077722;28;20425;-76
2021/12/20 00:41:00;;;;;;;1.57;1.43;;;7.20;1.00;;;;;;5075171;28;20839;-76
2021/12/20 00:43:26;;;;;;;3.47;1.83;;;7.20;1.00;;;;;;5073538;28;20453;-76
2021/12/20 00:45:52;;;;;;;4.70;2.53;;;7.10;1.00;;;;;;5073989;28;20948;-77
2021/12/20 00:48:18;;;;;;;2.43;2.00;;;7.10;1.00;;;;;;5073271;28;20437;-77
2021/12/20 00:50:44;;;;;;;6.60;2.17;;;7.10;1.00;;;;;;5073990;28;20455;-77
2021/12/20 00:53:12;;;;;;;2.27;1.90;;;7.10;1.00;;;;;;5073591;28;20449;-77
2021/12/20 00:55:39;;;;;;;1.73;1.63;;;;;;;;;;5075466;28;20794;-77
2021/12/20 00:58:06;;;;;;;3.23;2.57;;;7.10;1.00;;;;;;5074216;28;20948;-77
2021/12/20 01:00:42;;;;;;;3.63;2.10;;;7.10;1.00;;;;;;5073974;28;20443;-77
2021/12/20 01:03:08;;;;;;;2.50;2.30;;;7.10;1.00;;;;;;5073493;28;20439;-77
2021/12/20 01:05:36;;;;;;;7.00;2.83;;;7.20;1.00;;;;;;5073179;28;20421;-77
2021/12/20 01:08:04;;;;;;;4.40;2.67;;;7.20;1.00;;;;;;5073277;28;20457;-77
2021/12/20 01:10:30;;;;;;;2.47;1.80;;;7.20;1.00;;;;;;5080757;28;21278;-76
2021/12/20 01:12:59;;;;;;;2.97;2.47;;;7.20;1.00;;;;;;5087726;28;20515;-76
2021/12/20 01:15:39;;;;;;;3.27;2.50;;;7.20;1.00;;;;;;5093723;28;20416;-77
2021/12/20 01:18:06;;;;;;;3.90;2.07;;;7.20;1.00;;;;;;5079370;28;20436;-77
2021/12/20 01:20:34;;;;;;;2.33;2.13;;;7.20;1.00;;;;;;5073009;28;20962;-77
2021/12/20 01:23:00;;;;;;;7.20;2.23;;;7.20;1.00;;;;;;5081210;28;20433;-77
2021/12/20 01:25:25;;;;;;;5.40;2.83;;;7.20;1.00;;;;;;5073952;28;20451;-77
2021/12/20 01:27:51;;;;;;;2.97;2.00;;;7.20;1.00;;;;;;5072424;28;20187;-77
2021/12/20 01:30:21;;;;;;;3.73;2.63;;;7.20;1.00;;;;;;5074555;28;20191;-77
2021/12/20 01:32:47;;;;;;;4.60;2.57;;;7.20;1.00;;;;;;5073078;28;20825;-77
2021/12/20 01:35:14;;;;;;;2.77;2.30;;;7.20;1.00;;;;;;5073049;28;20429;-77
2021/12/20 01:37:40;;;;;;;5.33;2.13;;;7.20;1.00;;;;;;5073129;28;20429;-77
2021/12/20 01:40:09;;;;;;;4.43;2.40;;;7.20;1.00;;;;;;5090093;28;20451;-77
2021/12/20 01:42:36;;;;;;;3.63;2.50;;;7.20;1.00;;;;;;5073197;28;20432;-78
2021/12/20 01:45:05;;;;;;;2.17;1.97;;;7.20;1.00;;;;;;5073548;28;20512;-77
2021/12/20 01:47:35;;;;;;;2.83;2.07;;;7.20;1.00;;;;;;5080485;28;20886;-77
2021/12/20 01:50:09;;;;;;;2.37;2.17;;;7.20;1.00;;;;;;5079075;28;20815;-77
2021/12/20 01:52:43;;;;;;;2.00;1.73;;;7.10;1.00;;;;;;5085517;28;20545;-77
2021/12/20 01:55:12;;;;;;;1.77;1.67;;;7.10;1.00;;;;;;5087661;28;20420;-77
2021/12/20 01:57:38;;;;;;;3.17;2.00;;;7.10;1.00;;;;;;5079661;28;20460;-77
2021/12/20 02:00:07;;;;;;;8.40;2.20;;;7.10;1.00;;;;;;5079893;28;20456;-77
2021/12/20 02:02:33;;;;;;;2.93;2.20;;;7.10;1.00;;;;;;5090189;28;20178;-77
2021/12/20 02:05:10;;;;;;;2.80;2.13;;;;;;;;;;5079270;28;20447;-77
2021/12/20 02:07:52;;;;;;;9.73;2.80;;;;;;;;;;5081397;28;20464;-77
2021/12/20 02:10:18;;;;;;;3.17;1.73;;;7.20;1.00;;;;;;5088342;28;20839;-77
2021/12/20 02:12:45;;;;;;;2.30;2.10;;;7.20;1.00;;;;;;5092501;28;20451;-76
2021/12/20 02:15:10;;;;;;;2.33;2.07;;;7.20;1.00;;;;;;5099621;28;20408;-77
2021/12/20 02:17:38;;;;;;;2.10;1.90;;;7.20;1.00;;;;;;5090088;28;20435;-77
2021/12/20 02:20:04;;;;;;;5.13;2.93;;;7.10;1.00;;;;;;5086028;28;20652;-77
2021/12/20 02:22:30;;;;;;;3.47;2.23;;;7.10;1.00;;;;;;5084103;28;20420;-77
2021/12/20 02:24:56;;;;;;;5.63;2.50;;;7.10;1.00;;;;;;5085255;28;20638;-78
2021/12/20 02:27:23;;;;;;;14.20;2.17;;;7.20;1.00;;;;;;5084804;28;20432;-78
2021/12/20 02:30:12;;;;;;;2.77;1.70;;;7.10;1.00;;;;;;5084222;28;20183;-76
2021/12/20 02:38:26;;;;;;;5.47;2.53;;;7.10;1.00;;;;;;5088314;28;20794;-76
2021/12/20 02:41:10;;;;;;;2.70;2.27;;;7.10;1.00;;;;;;5078214;28;20449;-76
2021/12/20 02:43:40;;;;;;;6.90;2.30;;;7.10;1.00;;;;;;5085073;28;20232;-76
2021/12/20 02:46:28;;;;;;;2.90;2.17;;;7.10;1.00;;;;;;5079227;28;20954;-76
2021/12/20 02:48:54;;;;;;;2.07;1.83;;;7.10;1.00;;;;;;5087250;28;20429;-76
2021/12/20 02:51:23;;;;;;;2.60;2.13;;;7.10;1.00;;;;;;5080192;28;21012;-76
2021/12/20 02:53:50;;;;;;;2.53;1.80;;;7.20;1.00;;;;;;5078491;28;20417;-76
2021/12/20 02:56:15;;;;;;;4.03;2.30;;;7.10;1.00;;;;;;5079124;28;21006;-76
2021/12/20 02:58:41;;;;;;;2.60;1.73;;;7.10;1.00;;;;;;5075096;28;20460;-76
2021/12/20 03:01:06;;;;;;;3.83;1.97;;;7.00;1.00;;;;;;5082293;28;20672;-77
2021/12/20 03:03:32;;;;;;;1.93;1.83;;;7.00;1.00;;;;;;5077133;28;20236;-77
2021/12/20 03:05:58;;;;;;;2.00;1.60;;;7.20;1.00;;;;;;5077593;28;20573;-77
2021/12/20 03:08:23;;;;;;;1.80;1.70;;;7.00;1.00;;;;;;5079802;28;20186;-77
2021/12/20 03:10:50;;;;;;;2.20;1.83;;;7.10;1.00;;;;;;5077666;28;20183;-77
2021/12/20 03:13:15;;;;;;;2.37;1.90;;;7.00;1.00;;;;;;5093714;28;20178;-77
2021/12/20 03:15:42;;;;;;;2.10;1.90;;;;;;;;;;5082976;28;20440;-77
2021/12/20 03:18:07;;;;;;;3.50;2.30;;;7.00;1.00;;;;;;5075486;28;20186;-77
2021/12/20 03:20:33;;;;;;;2.50;2.27;;;7.00;1.00;;;;;;5080091;28;20424;-77
2021/12/20 03:22:59;;;;;;;8.93;2.20;;;7.00;1.00;;;;;;5077759;28;20642;-77
2021/12/20 03:25:25;;;;;;;2.87;1.87;;;7.00;1.00;;;;;;5075960;28;20195;-77
2021/12/20 03:27:51;;;;;;;1.67;1.57;;;7.00;1.00;;;;;;5074805;28;20942;-77
2021/12/20 03:30:17;;;;;;;5.07;2.20;;;7.00;1.00;;;;;;5077368;28;20451;-77
2021/12/20 03:32:43;;;;;;;2.20;2.00;;;6.90;1.00;;;;;;5077840;28;20460;-77
2021/12/20 03:35:09;;;;;;;4.50;2.03;;;7.00;1.00;;;;;;5075153;28;20186;-77
2021/12/20 03:37:35;;;;;;;2.67;1.87;;;6.90;1.00;;;;;;5075064;28;20187;-77
2021/12/20 03:40:02;;;;;;;4.50;2.07;;;6.90;1.00;;;;;;5074879;28;20494;-77
2021/12/20 03:42:29;;;;;;;3.30;1.60;;;6.90;1.00;;;;;;5074607;28;20225;-77
2021/12/20 03:45:00;;;;;;;1.97;1.80;;;6.90;1.00;;;;;;5074732;28;20421;-77
2021/12/20 03:47:26;;;;;;;1.37;1.20;;;6.70;1.00;;;;;;5075512;28;20493;-77
2021/12/20 03:49:51;;;;;;;2.60;1.50;;;6.80;1.00;;;;;;5074575;28;20978;-77
2021/12/20 03:52:17;;;;;;;2.30;1.37;;;6.80;1.00;;;;;;5075037;28;20206;-77
2021/12/20 03:54:42;;;;;;;2.60;1.37;;;6.70;1.00;;;;;;5075990;28;20630;-77
2021/12/20 03:57:08;;;;;;;8.13;1.30;;;6.60;1.00;;;;;;5076821;28;20193;-77
2021/12/20 03:59:36;;;;;;;9.13;1.40;;;6.70;1.00;;;;;;5074971;28;20179;-77
2021/12/20 04:02:02;;;;;;;2.53;1.17;;;6.80;1.00;;;;;;5081310;28;20187;-77
2021/12/20 04:04:28;;;;;;;1.87;1.17;;;6.70;1.00;;;;;;5076168;28;20490;-77
2021/12/20 04:06:54;;;;;;;4.50;1.37;;;;;;;;;;5076500;28;20421;-77
2021/12/20 04:09:20;;;;;;;4.63;1.13;;;;;;;;;;5074352;28;20529;-77
2021/12/20 04:11:46;;;;;;;15.33;2.33;;;;;;;;;;5078083;28;20501;-77
2021/12/20 04:14:12;;;;;;;2.80;1.10;;;;;;;;;;5082663;28;20416;-77
2021/12/20 04:16:37;;;;;;;3.20;1.13;;;6.90;1.00;;;;;;5073199;28;20421;-77
2021/12/20 04:19:04;;;;;;;2.10;0.90;;;7.00;1.00;;;;;;5072883;28;20525;-77
2021/12/20 04:21:30;;;;;;;3.20;1.60;;;7.00;1.00;;;;;;5073960;28;20181;-77
2021/12/20 04:23:56;;;;;;;1.60;1.10;;;;;;;;;;5078162;28;20451;-77
2021/12/20 04:26:22;;;;;;;3.63;0.90;;;6.90;1.00;;;;;;5078130;28;20425;-77
2021/12/20 04:28:48;;;;;;;2.60;0.90;;;;;;;;;;5073698;28;20421;-77
2021/12/20 04:31:14;;;;;;;2.37;1.10;;;7.00;1.00;;;;;;5074299;28;20286;-76
2021/12/20 04:33:39;;;;;;;2.87;1.40;;;6.90;1.00;;;;;;5073485;28;21071;-76
2021/12/20 04:36:06;;;;;;;8.13;1.40;;;;;;;;;;5073826;28;20191;-76
2021/12/20 04:38:32;;;;;;;13.27;1.17;;;;;;;;;;5074236;28;20676;-76
2021/12/20 04:40:59;;;;;;;3.20;1.30;;;7.00;1.00;;;;;;5080979;28;20479;-76
2021/12/20 04:43:25;;;;;;;2.50;1.20;;;7.00;1.00;;;;;;5075194;28;20425;-76
2021/12/20 04:45:54;;;;;;;12.43;1.37;;;7.00;1.00;;;;;;5073728;28;20417;-77
2021/12/20 04:48:20;;;;;;;7.03;1.50;;;7.00;1.00;;;;;;5073447;28;20179;-77
2021/12/20 04:50:45;;;;;;;3.60;1.37;;;7.00;1.00;;;;;;5088869;28;20843;-78
2021/12/20 04:53:12;;;;;;;5.63;1.03;;;;;;;;;;5073937;28;20206;-77
2021/12/20 04:55:37;;;;;;;8.40;1.40;;;7.00;1.00;;;;;;5076909;28;20228;-77
2021/12/20 04:58:05;;;;;;;1.87;0.90;;;7.00;1.00;;;;;;5073274;28;20421;-77
2021/12/20 05:00:33;;;;;;;8.30;1.07;;;7.00;1.00;;;;;;5073486;28;20219;-77
2021/12/20 05:03:01;;;;;;;9.40;1.40;;;7.00;1.00;;;;;;5073701;28;20414;-77
2021/12/20 05:05:28;;;;;;;1.70;1.23;;;7.00;1.00;;;;;;5072044;28;20429;-77
2021/12/20 05:07:54;;;;;;;6.13;1.50;;;6.90;1.00;;;;;;5072373;28;20429;-77
2021/12/20 05:10:33;;;;;;;2.90;1.20;;;6.90;1.00;;;;;;5073979;28;20413;-77
2021/12/20 05:13:05;;;;;;;10.53;1.73;;;6.90;1.00;;;;;;5093296;28;20512;-77
2021/12/20 05:15:31;;;;;;;9.60;1.30;;;6.90;1.00;;;;;;5074931;28;20435;-77
2021/12/20 05:17:57;;;;;;;3.57;1.30;;;6.90;1.00;;;;;;5073519;28;20941;-76
2021/12/20 05:20:24;;;;;;;4.43;1.60;;;6.80;1.00;;;;;;5072761;28;20414;-77
2021/12/20 05:22:50;;;;;;;2.40;1.10;;;6.90;1.00;;;;;;5073286;28;20429;-77
2021/12/20 05:25:16;;;;;;;10.67;1.63;;;6.90;1.00;;;;;;5074090;28;20490;-77
2021/12/20 05:27:41;;;;;;;1.47;1.00;;;6.80;1.00;;;;;;5074422;28;20440;-77
2021/12/20 05:30:09;;;;;;;7.73;1.47;;;6.80;1.00;;;;;;5082412;28;20523;-77
2021/12/20 05:32:35;;;;;;;5.27;0.90;;;6.80;1.00;;;;;;5073380;28;20536;-77
2021/12/20 05:35:01;;;;;;;1.70;1.27;;;6.80;1.00;;;;;;5080664;28;20456;-77
2021/12/20 05:37:27;;;;;;;7.43;1.63;;;6.80;1.00;;;;;;5075276;28;20449;-77
2021/12/20 05:39:52;;;;;;;2.57;1.20;;;6.80;1.00;;;;;;5071511;28;20199;-77
2021/12/20 05:42:18;;;;;;;6.90;1.60;;;6.70;1.00;;;;;;5073083;28;20237;-77
2021/12/20 05:44:44;;;;;;;8.40;1.27;;;6.60;1.00;;;;;;5077270;28;20209;-77
2021/12/20 05:47:10;;;;;;;26.10;1.70;;;;;;;;;;5075335;28;20186;-77
2021/12/20 05:49:36;;;;;;;7.30;1.23;;;;;;;;;;5072789;28;20187;-77
2021/12/20 05:52:03;;;;;;;7.30;1.73;;;6.40;1.00;;;;;;5072704;28;20483;-77
2021/12/20 05:54:31;;;;;;;12.30;2.33;;;6.10;1.00;;;;;;5072922;28;20460;-77
2021/12/20 05:56:57;;;;;;;11.80;1.10;;;6.10;1.00;;;;;;5080870;28;20417;-77
2021/12/20 05:59:24;;;;;;;5.13;1.10;;;6.00;1.00;;;;;;5071757;28;20464;-77
2021/12/20 06:01:50;;;;;;;6.53;1.10;;;5.90;1.00;;;;;;5073094;28;20482;-77
2021/12/20 06:04:15;;;;;;;8.20;1.57;;;5.90;1.00;;;;;;5077613;28;20433;-77
2021/12/20 06:06:41;;;;;;;10.77;1.73;;;5.70;1.00;;;;;;5073959;28;20257;-77
2021/12/20 06:09:07;;;;;;;2.90;1.03;;;;;;;;;;5073106;28;20207;-77
2021/12/20 06:11:33;;;;;;;1.17;1.07;;;5.50;1.00;;;;;;5072761;28;20899;-77
2021/12/20 06:13:59;;;;;;;6.47;1.37;;;5.50;1.00;;;;;;5078916;28;20432;-77
2021/12/20 06:16:25;;;;;;;10.97;1.87;;;5.40;1.00;;;;;;5090450;28;20174;-78
2021/12/20 06:18:51;;;;;;;10.17;2.40;;;5.40;1.00;;;;;;5093096;28;20242;-78
2021/12/20 06:21:17;;;;;;;4.93;1.47;;;;;;;;;;5086269;28;20997;-77
2021/12/20 06:23:43;;;;;;;7.00;1.20;;;;;;;;;;5074623;28;20258;-77
2021/12/20 06:26:09;;;;;;;6.27;1.53;;;4.90;1.00;;;;;;5074180;28;20547;-78
2021/12/20 06:28:35;;;;;;;7.73;1.43;;;;;;;;;;5080759;28;20767;-78
2021/12/20 06:31:02;;;;;;;9.80;1.63;;;;;;;;;;5075046;28;20421;-78
2021/12/20 06:33:27;;;;;;;2.42;1.45;;;4.70;1.00;;;;;;5075473;28;20417;-77
2021/12/20 06:35:54;;;;;;;1.70;1.23;;;4.70;1.00;;;;;;5075026;28;20676;-77
2021/12/20 06:38:24;;;;;;;4.37;1.00;;;4.70;1.00;;;;;;5076136;28;20182;-77
2021/12/20 06:40:52;;;;;;;8.77;1.40;;;4.60;1.00;;;;;;5077955;28;20471;-77
2021/12/20 06:43:18;;;;;;;4.97;1.50;;;4.60;1.00;;;;;;5080090;28;20912;-77
2021/12/20 06:45:45;;;;;;;2.80;0.90;;;4.50;1.00;;;;;;5075595;28;20505;-77
2021/12/20 06:48:12;;;;;;;6.00;1.50;;;4.50;1.00;;;;;;5077424;28;20409;-76
2021/12/20 06:50:38;;;;;;;8.57;1.07;;;4.40;1.00;;;;;;5082686;28;20989;-77
2021/12/20 06:53:05;;;;;;;8.23;2.10;;;;;;;;;;5085033;28;20551;-77
2021/12/20 06:55:33;;;;;;;2.70;1.70;;;4.40;1.00;;;;;;5089615;28;20173;-76
2021/12/20 06:57:59;;;;;;;5.70;1.65;;;4.30;1.00;;;;;;5079274;28;20448;-76
2021/12/20 07:00:26;;;;;;;3.13;1.50;;;4.30;1.00;;;;;;5077361;28;20218;-77
2021/12/20 07:02:53;;;;;;;3.88;1.00;;;4.30;1.00;;;;;;5075747;28;20410;-76
2021/12/20 07:05:19;;;;;;;2.45;1.45;;;4.20;1.00;;;;;;5078499;28;20245;-76
2021/12/20 07:07:45;;;;;;;16.65;1.63;;;4.20;1.00;;;;;;5084665;28;20174;-76
2021/12/20 07:10:11;;;;;;;14.63;1.60;;;4.10;1.00;;;;;;5086775;28;20527;-77
2021/12/20 07:12:38;;;;;;;6.13;1.10;;;4.10;1.00;;;;;;5091756;28;20469;-77
2021/12/20 07:15:06;;;;;;;4.32;2.20;;;4.10;1.00;;;;;;5079403;28;20923;-77
2021/12/20 07:17:32;;;;;;;5.88;1.35;;;4.10;1.00;;;;;;5075813;28;20633;-77
2021/12/20 07:20:00;;;;;;;4.53;1.25;;;4.00;1.00;;;;;;5083732;28;20179;-77
2021/12/20 07:22:26;;;;;;;3.25;1.33;;;4.00;1.00;;;;;;5084578;28;20186;-76
2021/12/20 07:24:51;;;;;;;8.93;1.53;;;4.00;1.00;;;;;;5079951;28;20170;-76
2021/12/20 07:27:20;;;;;;;3.13;1.40;;;4.00;1.00;;;;;;5082707;28;20190;-76
2021/12/20 07:29:46;;;;;;;2.72;1.15;;;4.00;1.00;;;;;;5078021;28;20190;-76
2021/12/20 07:32:15;;;;;;;7.13;1.35;;;3.90;1.00;;;;;;5078997;28;20262;-76
2021/12/20 07:34:41;;;;;;;4.82;1.50;;;;;;;;;;5078082;28;20171;-77
2021/12/20 07:37:08;;;;;;;1.35;1.35;;;3.90;1.00;;;;;;5074823;28;20281;-77
2021/12/20 07:39:35;;;;;;;3.10;1.65;;;3.90;1.00;;;;;;5087508;28;20183;-78
2021/12/20 07:42:01;;;;;;;5.18;1.35;;;3.80;1.00;;;;;;5080922;28;20261;-81
2021/12/20 07:44:27;;;;;;;5.45;1.75;;;3.70;1.00;;;;;;5081989;28;20551;-76
2021/12/20 07:46:53;;;;;;;8.18;1.70;;;3.70;1.00;;;;;;5078645;28;20176;-77
2021/12/20 07:49:20;;;;;;;6.80;1.50;;;3.70;1.00;;;;;;5085907;28;20181;-76
2021/12/20 07:51:51;;;;;;;2.70;1.15;;;3.60;1.00;;;;;;5078729;28;20653;-76
2021/12/20 07:54:18;;;;;;;2.17;1.20;;;3.60;1.00;;;;;;5087801;28;20180;-77
2021/12/20 07:56:44;;;;;;;11.57;2.47;;;3.60;1.00;;;;;;5087119;28;20163;-76
2021/12/20 07:59:10;;;;;;;4.30;1.20;;;3.60;1.00;;;;;;5078670;28;20254;-76
2021/12/20 08:01:36;;;;;;;4.53;1.40;;;3.70;1.00;;;;;;5073543;28;20420;-76
2021/12/20 08:04:04;;;;;;;8.35;2.03;;;3.60;1.00;;;;;;5075323;28;20568;-76
2021/12/20 08:06:30;;;;;;;1.42;1.10;;;3.70;1.00;;;;;;5085102;28;20193;-76
2021/12/20 08:08:56;;;;;;;24.85;2.35;;;3.70;1.00;;;;;;5082597;28;20187;-76
2021/12/20 08:11:22;;;;;;;12.45;2.83;;;3.70;1.00;;;;;;5069578;28;20202;-76
2021/12/20 08:13:48;;;;;;;6.40;1.80;;;;;;;;;;5083121;28;20197;-76
2021/12/20 08:16:19;;;;;;;6.00;1.60;;;3.70;1.00;;;;;;5086601;28;20419;-76
2021/12/20 08:18:45;;;;;;;7.70;1.83;;;3.80;1.00;;;;;;5078507;28;20424;-76
2021/12/20 08:21:14;;;;;;;5.72;1.73;;;3.90;1.00;;;;;;5079690;28;20186;-76
2021/12/20 08:23:40;;;;;;;4.95;1.60;;;3.90;1.00;;;;;;5077697;28;20182;-77
2021/12/20 08:26:07;;;;;;;14.50;2.03;;;3.70;1.00;;;;;;5080247;28;20189;-76
2021/12/20 08:28:34;;;;;;;2.35;1.42;;;3.90;1.00;;;;;;5080399;28;20181;-76
2021/12/20 08:30:59;;;;;;;6.43;1.90;;;3.80;1.00;;;;;;5081590;28;20189;-76
2021/12/20 08:33:25;;;;;;;13.43;2.13;;;;;;;;;;5080824;28;20179;-75
2021/12/20 08:35:51;;;;;;;8.82;2.10;;;3.90;1.00;;;;;;5085693;28;20254;-75
2021/12/20 08:38:17;;;;;;;18.33;2.40;;;3.90;1.00;;;;;;5083843;28;20254;-76
2021/12/20 08:40:43;;;;;;;7.88;2.28;;;;;;;;;;5076267;28;20185;-77
2021/12/20 08:43:09;;;;;;;2.65;1.63;;;4.00;1.00;;;;;;5093866;28;20178;-76
2021/12/20 08:45:35;;;;;;;3.47;1.50;;;3.90;1.00;;;;;;5071715;28;20696;-76
2021/12/20 08:48:01;;;;;;;10.77;1.95;;;4.00;1.00;;;;;;5075546;28;20216;-76
2021/12/20 08:50:27;;;;;;;7.20;1.97;;;4.00;1.00;;;;;;5074905;28;20581;-77
2021/12/20 08:52:53;;;;;;;6.38;1.50;;;4.00;1.00;;;;;;5075497;28;20209;-77
2021/12/20 08:55:20;;;;;;;7.65;2.05;;;4.00;1.00;;;;;;5071790;28;20579;-76
2021/12/20 08:57:46;;;;;;;15.85;1.90;;;4.10;1.00;;;;;;5074714;28;20186;-76
2021/12/20 09:00:22;;;;;;;1.57;1.37;;;4.20;1.00;;;;;;5074322;28;20231;-76
2021/12/20 09:02:48;;;;;;;7.73;1.33;;;4.30;1.00;;;;;;5073692;28;20774;-76
2021/12/20 09:05:14;;;;;;;5.00;1.60;;;4.30;1.00;;;;;;5092803;28;20431;-76
2021/12/20 09:07:41;;;;;;;2.67;1.77;;;4.30;1.00;;;;;;5073261;28;20421;-76
2021/12/20 09:10:09;;;;;;;10.63;1.80;;;4.30;1.00;;;;;;5075280;28;20638;-76
2021/12/20 09:12:34;;;;;;;6.18;1.45;;;4.30;1.00;;;;;;5073551;28;20684;-76
2021/12/20 09:15:00;;;;;;;6.70;1.80;;;4.30;1.00;;;;;;5070958;28;20187;-77
2021/12/20 09:17:26;;;;;;;21.73;1.53;;;4.40;1.00;;;;;;5072874;28;20244;-76
2021/12/20 09:19:53;;;;;;;9.17;1.80;;;;;;;;;;5074864;28;20247;-80
2021/12/20 09:22:19;;;;;;;9.23;1.70;;;4.60;1.00;;;;;;5072130;28;20166;-77
2021/12/20 09:24:45;;;;;;;1.97;1.63;;;;;;;;;;5073848;28;20819;-77
2021/12/20 09:27:13;;;;;;;10.90;3.10;;;4.70;1.00;;;;;;5074369;28;20413;-76
2021/12/20 09:29:39;;;;;;;4.77;2.00;;;;;;;;;;5072110;28;20455;-76
2021/12/20 09:32:04;;;;;;;3.97;1.60;;;4.70;1.00;;;;;;5072163;28;20449;-76
2021/12/20 09:34:31;;;;;;;12.50;2.17;;;4.80;1.00;;;;;;5075097;28;20914;-76
2021/12/20 09:36:57;;;;;;;4.00;1.40;;;4.90;1.00;;;;;;5074484;28;20410;-76
2021/12/20 09:39:23;;;;;;;6.37;1.47;;;4.90;1.00;;;;;;5074181;28;20466;-75
2021/12/20 09:44:15;;;;;;;7.93;1.40;;;4.80;1.00;;;;;;5072412;28;20416;-76
2021/12/20 09:46:42;;;;;;;1.70;1.43;;;4.70;1.00;;;;;;5073580;28;20179;-76
2021/12/20 09:49:09;;;;;;;2.20;1.03;;;4.80;1.00;;;;;;5088553;28;20439;-76
2021/12/20 09:51:35;;;;;;;5.57;1.53;;;4.80;1.00;;;;;;5073609;28;20457;-76
2021/12/20 09:54:01;;;;;;;8.43;1.17;;;4.80;1.00;;;;;;5073820;28;20417;-76
2021/12/20 09:56:28;;;;;;;5.30;1.63;;;4.80;1.00;;;;;;5074117;28;20890;-76
2021/12/20 09:58:57;;;;;;;4.73;1.40;;;4.80;1.00;;;;;;5073335;28;20446;-76
2021/12/20 10:01:25;;;;;;;6.83;2.43;;;4.90;1.00;;;;;;5074016;28;20424;-76
2021/12/20 10:03:52;;;;;;;7.00;1.43;;;5.10;1.00;;;;;;5072278;28;20416;-76
2021/12/20 10:06:19;;;;;;;1.40;1.30;;;5.10;1.00;;;;;;5073626;28;21901;-77
2021/12/20 10:08:56;;;;;;;4.20;1.17;;;5.10;1.00;;;;;;5077702;28;20489;-76
2021/12/20 10:11:29;;;;;;;9.87;1.77;;;5.20;1.00;;;;;;5078779;28;20963;-76
2021/12/20 10:14:21;;;;;;;5.00;1.80;;;5.20;1.00;;;;;;5076891;28;20417;-76
2021/12/20 10:17:01;;;;;;;3.70;1.40;;;5.20;1.00;;;;;;5071160;28;20457;-76
2021/12/20 10:19:34;;;;;;;5.90;2.00;;;5.40;1.00;;;;;;5079579;28;20967;-76
2021/12/20 10:22:02;;;;;;;6.67;1.87;;;5.40;1.00;;;;;;5078724;28;20409;-76
2021/12/20 10:24:35;;;;;;;3.63;1.60;;;5.40;1.00;;;;;;5074145;28;20884;-76
2021/12/20 10:27:02;;;;;;;7.70;2.30;;;5.60;1.00;;;;;;5075997;28;20483;-76
2021/12/20 10:29:28;;;;;;;2.90;1.80;;;5.60;1.00;;;;;;5076328;28;20424;-75
2021/12/20 10:31:55;;;;;;;4.10;1.60;;;5.60;1.00;;;;;;5076615;28;20453;-76
2021/12/20 10:34:35;;;;;;;6.27;1.97;;;5.60;1.00;;;;;;5077896;28;20400;-76
2021/12/20 10:37:03;;;;;;;7.97;1.90;;;5.70;1.00;;;;;;5076008;28;20412;-76
2021/12/20 10:39:45;;;;;;;7.90;1.47;;;5.60;1.00;;;;;;5077273;28;20432;-76
2021/12/20 10:42:26;;;;;;;6.03;1.00;;;5.60;1.00;;;;;;5076980;28;20570;-76
2021/12/20 10:45:14;;;;;;;3.97;1.37;;;5.70;1.00;;;;;;5076833;28;20455;-76
2021/12/20 10:47:42;;;;;;;4.00;0.90;;;5.80;1.00;;;;;;5077426;28;20409;-76
2021/12/20 10:50:30;;;;;;;7.50;1.70;;;5.80;1.00;;;;;;5075134;28;20931;-76
2021/12/20 10:53:19;;;;;;;14.40;1.60;;;5.80;1.00;;;;;;5076802;28;20742;-76
2021/12/20 10:55:49;;;;;;;5.47;0.97;;;5.80;1.00;;;;;;5075186;28;20408;-76
2021/12/20 10:58:30;;;;;;;5.00;1.27;;;5.80;1.00;;;;;;5076887;28;20423;-75
2021/12/20 11:01:22;;;;;;;8.43;2.00;;;5.70;1.00;;;;;;5076050;28;20824;-75
2021/12/20 11:03:55;;;;;;;1.13;0.70;;;5.70;1.00;;;;;;5077124;28;20420;-76
2021/12/20 11:09:05;;;;;;;2.67;1.10;;;5.60;1.00;;;;;;5084543;28;20422;-75
2021/12/20 11:11:33;;;;;;;3.23;1.40;;;5.70;1.00;;;;;;5079933;28;20186;-75
2021/12/20 11:14:04;;;;;;;5.77;1.03;;;5.70;1.00;;;;;;5078841;28;20838;-75
2021/12/20 11:16:36;;;;;;;1.90;0.90;;;5.80;1.00;;;;;;5075373;28;20463;-75
2021/12/20 11:19:20;;;;;;;0.93;0.90;;;5.90;1.00;;;;;;5076654;28;20817;-76
2021/12/20 11:22:05;;;;;;;1.83;1.00;;;5.90;1.00;;;;;;5075350;28;20796;-77
2021/12/20 11:24:36;;;;;;;6.10;0.90;;;6.00;1.00;;;;;;5084424;28;20934;-76
2021/12/20 11:27:04;;;;;;;2.40;1.27;;;6.00;1.00;;;;;;5075580;28;20943;-76
2021/12/20 11:29:31;;;;;;;5.63;1.63;;;6.00;1.00;;;;;;5076117;28;20472;-74
2021/12/20 11:31:57;;;;;;;2.47;1.53;;;6.30;1.00;;;;;;5074818;28;20457;-75
2021/12/20 11:34:24;;;;;;;7.90;1.57;;;6.30;1.00;;;;;;5078821;28;20430;-75
2021/12/20 11:36:53;;;;;;;3.13;1.23;;;6.30;1.00;;;;;;5087299;28;20832;-77
2021/12/20 11:39:19;;;;;;;4.40;1.20;;;6.30;1.00;;;;;;5075420;28;20412;-76
2021/12/20 11:41:45;;;;;;;0.93;0.90;;;6.60;1.00;;;;;;5083131;28;20532;-77
2021/12/20 11:44:15;;;;;;;7.63;1.23;;;6.60;1.00;;;;;;5074623;28;20492;-77
2021/12/20 11:47:01;;;;;;;2.97;0.87;;;6.60;1.00;;;;;;5073324;28;20951;-76
2021/12/20 11:49:28;;;;;;;3.60;0.90;;;6.70;1.00;;;;;;5086431;28;20419;-76
2021/12/20 11:52:12;;;;;;;3.83;1.27;;;6.70;1.00;;;;;;5074807;28;20464;-75
2021/12/20 11:54:45;;;;;;;1.90;0.73;;;6.80;1.00;;;;;;5074282;28;20421;-75
2021/12/20 11:57:33;;;;;;;2.67;0.77;;;10.00;1.00;;;;;;5076005;28;20771;-75
2021/12/20 12:00:05;;;;;;;1.27;0.90;;;6.90;1.00;;;;;;5075506;28;20420;-75
2021/12/20 12:02:34;;;;;;;5.27;1.33;;;6.60;1.00;;;;;;5073930;28;20420;-75
2021/12/20 12:04:59;;;;;;;10.53;1.97;;;6.50;1.00;;;;;;5074497;28;20532;-75
2021/12/20 12:07:28;;;;;;;3.77;1.20;;;6.50;1.00;;;;;;5083320;28;20458;-75
2021/12/20 12:10:01;;;;;;;2.87;1.53;;;6.50;1.00;;;;;;5075600;28;20186;-75
2021/12/20 12:12:29;;;;;;;5.20;0.70;;;6.40;1.00;;;;;;5080949;28;20979;-77
2021/12/20 12:15:07;;;;;;;13.33;0.87;;;6.40;1.00;;;;;;5074304;28;20401;-75
2021/12/20 12:17:48;;;;;;;5.00;0.70;;;6.50;1.00;;;;;;5072619;28;20435;-74
2021/12/20 12:20:14;;;;;;;2.20;0.73;;;6.70;1.00;;;;;;5076240;28;20440;-74
2021/12/20 12:22:43;;;;;;;2.97;0.97;;;6.60;1.00;;;;;;5080695;28;20416;-77
2021/12/20 12:25:32;;;;;;;2.20;0.97;;;6.60;1.00;;;;;;5077569;28;20179;-77
2021/12/20 12:27:58;;;;;;;0.90;0.70;;;6.70;1.00;;;;;;5086083;28;20533;-77
2021/12/20 12:30:28;;;;;;;1.93;0.90;;;6.70;1.00;;;;;;5074195;28;20814;-76
2021/12/20 12:32:54;;;;;;;1.17;0.70;;;6.50;1.00;;;;;;5084216;28;20358;-76
2021/12/20 12:35:49;;;;;;;5.40;0.87;;;6.50;1.00;;;;;;5075977;28;20902;-76
2021/12/20 12:38:15;;;;;;;3.70;1.00;;;6.60;1.00;;;;;;5077063;28;20421;-76
2021/12/20 12:40:42;;;;;;;3.13;1.03;;;6.50;1.00;;;;;;5073543;28;20468;-76
2021/12/20 12:43:08;;;;;;;3.13;0.77;;;6.50;1.00;;;;;;5074979;28;20471;-75
2021/12/20 12:45:52;;;;;;;4.37;1.13;;;6.50;1.00;;;;;;5073329;28;20810;-76
2021/12/20 12:48:50;;;;;;;2.30;1.10;;;6.70;1.00;;;;;;5073253;28;20421;-75
2021/12/20 12:51:18;;;;;;;4.10;1.30;;;6.70;1.00;;;;;;5016090;28;21273;-75
2021/12/20 12:53:50;;;;;;;3.77;1.13;;;6.60;1.00;;;;;;4995525;28;20823;-74
2021/12/20 12:56:27;;;;;;;7.70;0.93;;;6.60;1.00;;;;;;5029059;28;20530;-74
2021/12/20 12:59:11;;;;;;;1.43;0.87;;;6.60;1.00;;;;;;5018178;28;20445;-74
2021/12/20 13:01:52;;;;;;;1.30;0.63;;;6.60;1.00;;;;;;5025307;28;20466;-74
2021/12/20 13:04:18;;;;;;;3.23;1.63;;;6.70;1.00;;;;;;5024311;28;20856;-74
2021/12/20 13:06:45;;;;;;;1.10;0.90;;;6.70;1.00;;;;;;5031362;28;20902;-77
2021/12/20 13:09:10;;;;;;;8.37;1.07;;;6.70;1.00;;;;;;5030778;28;20481;-76
2021/12/20 13:11:36;;;;;;;3.60;1.03;;;6.70;1.00;;;;;;5020790;28;20464;-77
2021/12/20 13:14:14;;;;;;;2.40;1.07;;;6.50;1.00;;;;;;5026690;28;20640;-77
2021/12/20 13:17:03;;;;;;;3.60;0.93;;;6.50;1.00;;;;;;5012134;28;20176;-77
2021/12/20 13:19:30;;;;;;;2.93;1.10;;;6.50;1.00;;;;;;5020955;28;20420;-77
2021/12/20 13:22:01;;;;;;;12.73;1.50;;;6.50;1.00;;;;;;5018308;28;20436;-77
2021/12/20 13:24:27;;;;;;;3.50;0.90;;;6.40;1.00;;;;;;5018302;28;20476;-78
2021/12/20 13:27:08;;;;;;;5.70;0.93;;;6.40;1.00;;;;;;5028162;28;20826;-78
2021/12/20 13:29:35;;;;;;;5.90;1.00;;;6.30;1.00;;;;;;5078228;28;20520;-80
2021/12/20 13:32:09;;;;;;;1.47;1.37;;;6.30;1.00;;;;;;5071529;28;20457;-81
2021/12/20 13:34:35;;;;;;;4.87;1.20;;;6.30;1.00;;;;;;5073040;28;20444;-80
2021/12/20 13:37:05;;;;;;;1.30;0.93;;;6.20;1.00;;;;;;5085630;28;20772;-80